Time;durP1;ratioP1;P1;durP2;ratioP2;P2;SDS_P1;SDS_P2;PMS_P1;PMS_P2;Temp;Humidity;BMP_temperature;BMP_pressure;BME280_temperature;BME280_humidity;BME280_pressure;Samples;Min_cycle;Max_cycle;Signal;HPM_P1;HPM_P2
2023/12/13 00:00:20;;;;;;;2.63;0.20;;;7.80;99.90;;;;;;6189214;23;20247;-70
2023/12/13 00:02:46;;;;;;;0.30;0.30;;;7.80;99.90;;;;;;6189320;23;20340;-70
2023/12/13 00:05:11;;;;;;;0.00;0.00;;;7.80;99.90;;;;;;6216179;23;20012;-69
2023/12/13 00:07:37;;;;;;;0.43;0.43;;;7.80;99.90;;;;;;6189445;23;20017;-70
2023/12/13 00:10:04;;;;;;;0.10;0.10;;;7.70;99.90;;;;;;6164282;23;20024;-69
2023/12/13 00:16:10;;;;;;;0.80;0.32;;;7.60;99.90;;;;;;6215932;23;20008;-69
2023/12/13 00:18:36;;;;;;;2.08;0.43;;;7.60;99.90;;;;;;6189139;23;20013;-69
2023/12/13 00:21:02;;;;;;;1.13;0.63;;;7.60;99.90;;;;;;6164390;23;20032;-69
2023/12/13 00:23:28;;;;;;;0.10;0.10;;;7.60;99.90;;;;;;6189129;23;20017;-70
2023/12/13 00:25:54;;;;;;;0.00;0.00;;;7.60;99.90;;;;;;6216192;23;20336;-69
2023/12/13 00:28:19;;;;;;;1.10;0.30;;;7.60;99.90;;;;;;6189272;23;20054;-69
2023/12/13 00:38:13;;;;;;;0.50;0.35;;;7.70;99.90;;;;;;6215977;23;20062;-70
2023/12/13 00:40:38;;;;;;;0.98;0.57;;;7.70;99.90;;;;;;6189163;23;20008;-70
2023/12/13 00:43:05;;;;;;;0.40;0.28;;;7.70;99.90;;;;;;6188921;23;20063;-70
2023/12/13 00:45:31;;;;;;;0.82;0.82;;;7.70;99.90;;;;;;6215886;23;20088;-70
2023/12/13 00:47:56;;;;;;;1.10;0.57;;;7.80;99.90;;;;;;6215909;23;20391;-70
2023/12/13 00:50:22;;;;;;;0.10;0.10;;;7.80;99.90;;;;;;6190727;23;20013;-71
2023/12/13 00:52:47;;;;;;;0.22;0.20;;;7.80;99.90;;;;;;6190855;23;20344;-70
2023/12/13 00:55:13;;;;;;;0.17;0.17;;;7.80;99.90;;;;;;6217845;23;20009;-71
2023/12/13 00:57:38;;;;;;;0.55;0.20;;;7.80;99.90;;;;;;6190893;23;20452;-71
2023/12/13 01:00:05;;;;;;;0.30;0.20;;;7.90;99.90;;;;;;6190598;23;20015;-70
2023/12/13 01:02:31;;;;;;;1.15;0.52;;;7.80;99.90;;;;;;6190919;23;20028;-70
2023/12/13 01:08:37;;;;;;;0.13;0.13;;;7.80;99.90;;;;;;6217646;23;20007;-69
2023/12/13 01:11:07;;;;;;;0.30;0.17;;;7.80;99.90;;;;;;6217856;23;20009;-70
2023/12/13 01:13:33;;;;;;;0.00;0.00;;;7.80;99.90;;;;;;6190798;23;20429;-70
2023/12/13 01:15:58;;;;;;;0.20;0.20;;;7.80;99.90;;;;;;6217772;23;20020;-70
2023/12/13 01:18:24;;;;;;;0.30;0.30;;;7.80;99.90;;;;;;6165833;23;20091;-69
2023/12/13 01:20:49;;;;;;;0.00;0.00;;;7.80;99.90;;;;;;6190917;23;20040;-69
2023/12/13 01:26:57;;;;;;;0.10;0.10;;;7.80;99.90;;;;;;6217534;23;20011;-69
2023/12/13 01:29:22;;;;;;;0.30;0.25;;;7.80;99.90;;;;;;6165949;23;20024;-70
2023/12/13 01:31:48;;;;;;;0.00;0.00;;;7.70;99.90;;;;;;6217248;23;20070;-69
2023/12/13 01:34:15;;;;;;;0.10;0.10;;;7.80;99.90;;;;;;6190773;23;20009;-69
2023/12/13 01:36:43;;;;;;;0.10;0.10;;;7.70;99.90;;;;;;6190831;23;20020;-69
2023/12/13 01:39:09;;;;;;;0.25;0.20;;;7.70;99.90;;;;;;6190716;23;20040;-69
2023/12/13 01:41:35;;;;;;;0.98;0.30;;;7.70;99.90;;;;;;6217356;23;20467;-69
2023/12/13 01:47:42;;;;;;;0.10;0.10;;;7.70;99.90;;;;;;6217315;23;20043;-69
2023/12/13 01:50:08;;;;;;;1.35;0.20;;;7.70;99.90;;;;;;6190523;23;20028;-70
2023/12/13 01:52:34;;;;;;;0.10;0.10;;;7.80;99.90;;;;;;6165826;23;20016;-69
2023/12/13 01:55:00;;;;;;;0.10;0.10;;;7.70;99.90;;;;;;6190538;23;20452;-69
2023/12/13 02:01:08;;;;;;;0.65;0.65;;;7.70;99.90;;;;;;6217139;23;20011;-69
2023/12/13 02:03:35;;;;;;;0.20;0.20;;;7.70;99.90;;;;;;6190515;23;20075;-69
2023/12/13 02:06:01;;;;;;;0.10;0.10;;;7.70;99.90;;;;;;6217382;23;20043;-69
2023/12/13 02:08:27;;;;;;;0.10;0.10;;;7.70;99.90;;;;;;6190509;23;20371;-69
2023/12/13 02:10:53;;;;;;;0.00;0.00;;;7.70;99.90;;;;;;6190339;23;20083;-69
2023/12/13 02:13:19;;;;;;;0.20;0.20;;;7.70;99.90;;;;;;6190691;23;20431;-69
2023/12/13 02:15:45;;;;;;;0.25;0.25;;;7.70;99.90;;;;;;6190389;23;20016;-69
2023/12/13 02:18:11;;;;;;;0.05;0.05;;;7.70;99.90;;;;;;6190328;23;20009;-69
2023/12/13 02:24:21;;;;;;;0.10;0.10;;;7.70;99.90;;;;;;6217005;23;20015;-70
2023/12/13 02:26:47;;;;;;;0.10;0.10;;;7.70;99.90;;;;;;6190276;23;20073;-70
2023/12/13 02:32:53;;;;;;;0.00;0.00;;;7.70;99.90;;;;;;6216729;23;20023;-69
2023/12/13 02:39:03;;;;;;;1.35;0.38;;;7.60;99.90;;;;;;6216835;23;20031;-70
2023/12/13 02:41:29;;;;;;;0.00;0.00;;;7.60;99.90;;;;;;6189906;23;20014;-70
2023/12/13 02:43:55;;;;;;;1.13;0.30;;;7.50;99.90;;;;;;6216989;23;20127;-70
2023/12/13 02:50:01;;;;;;;0.10;0.10;;;7.40;99.90;;;;;;6216757;23;20043;-70
2023/12/13 02:52:27;;;;;;;0.10;0.10;;;7.40;99.90;;;;;;6190009;23;20012;-69
2023/12/13 02:58:33;;;;;;;0.30;0.30;;;7.40;99.90;;;;;;6216666;23;20058;-70
2023/12/13 03:00:58;;;;;;;0.15;0.15;;;7.40;99.90;;;;;;6189855;23;20452;-69
2023/12/13 03:03:24;;;;;;;0.65;0.32;;;7.40;99.90;;;;;;6189927;23;20062;-69
2023/12/13 03:05:50;;;;;;;0.05;0.05;;;7.40;99.90;;;;;;6165162;23;20013;-69
2023/12/13 03:11:56;;;;;;;0.30;0.30;;;7.40;99.90;;;;;;6216244;23;20405;-69
2023/12/13 03:14:22;;;;;;;0.00;0.00;;;7.40;99.90;;;;;;6189907;23;20012;-69
2023/12/13 03:16:47;;;;;;;0.20;0.20;;;7.50;99.90;;;;;;6189745;23;20008;-69
2023/12/13 03:19:13;;;;;;;0.35;0.35;;;7.40;99.90;;;;;;6216624;23;20059;-69
2023/12/13 03:21:38;;;;;;;0.32;0.32;;;7.50;99.90;;;;;;6216643;23;20058;-69
2023/12/13 03:27:45;;;;;;;0.10;0.10;;;7.40;99.90;;;;;;6216477;23;20007;-69
2023/12/13 03:30:10;;;;;;;0.10;0.10;;;7.50;99.90;;;;;;6189713;23;20448;-69
2023/12/13 03:32:37;;;;;;;0.22;0.20;;;7.50;99.90;;;;;;6189604;23;20009;-70
2023/12/13 03:38:44;;;;;;;0.17;0.17;;;7.50;99.90;;;;;;6216449;23;20088;-70
2023/12/13 03:41:10;;;;;;;0.10;0.10;;;7.50;99.90;;;;;;6189568;23;20017;-69
2023/12/13 03:43:35;;;;;;;0.35;0.20;;;7.50;99.90;;;;;;6189652;23;20507;-69
2023/12/13 03:49:42;;;;;;;0.10;0.10;;;7.50;99.90;;;;;;6216288;23;20062;-69
2023/12/13 03:52:08;;;;;;;0.08;0.08;;;7.60;99.90;;;;;;6189572;23;20017;-69
2023/12/13 03:54:34;;;;;;;0.10;0.10;;;7.60;99.90;;;;;;6216316;23;20012;-69
2023/12/13 03:56:59;;;;;;;0.00;0.00;;;7.60;99.90;;;;;;6216387;23;20016;-69
2023/12/13 04:03:06;;;;;;;0.50;0.50;;;7.60;99.90;;;;;;6216183;23;20015;-69
2023/12/13 04:05:31;;;;;;;0.10;0.10;;;7.60;99.90;;;;;;6189450;23;20008;-69
2023/12/13 04:07:57;;;;;;;0.70;0.13;;;7.60;99.90;;;;;;6189529;23;20016;-69
2023/12/13 04:14:03;;;;;;;0.13;0.13;;;7.60;99.90;;;;;;6216179;23;20471;-69
2023/12/13 04:20:11;;;;;;;0.20;0.20;;;7.60;99.90;;;;;;6216130;23;20027;-69
2023/12/13 04:22:36;;;;;;;0.00;0.00;;;7.70;99.90;;;;;;6189503;23;20008;-69
2023/12/13 04:25:02;;;;;;;0.22;0.22;;;7.60;99.90;;;;;;6217790;23;20086;-70
2023/12/13 04:27:28;;;;;;;0.05;0.05;;;7.60;99.90;;;;;;6191407;23;20012;-69
2023/12/13 04:29:54;;;;;;;0.10;0.10;;;7.60;99.90;;;;;;6191391;23;20015;-69
2023/12/13 04:32:19;;;;;;;1.08;0.20;;;7.60;99.90;;;;;;6191152;23;20020;-69
2023/12/13 04:34:45;;;;;;;1.02;0.57;;;7.60;99.90;;;;;;6191236;23;20084;-69
2023/12/13 04:37:10;;;;;;;0.45;0.30;;;7.60;99.90;;;;;;6191326;23;20009;-69
2023/12/13 04:40:32;;;;;;;0.03;0.03;;;7.60;99.90;;;;;;6191192;23;20016;-69
2023/12/13 04:42:59;;;;;;;0.85;0.32;;;7.60;99.90;;;;;;6217683;23;20017;-69
2023/12/13 04:45:25;;;;;;;0.15;0.15;;;7.50;99.90;;;;;;6166489;23;20013;-69
2023/12/13 04:47:50;;;;;;;0.10;0.10;;;7.50;99.90;;;;;;6218050;23;20016;-69
2023/12/13 04:50:16;;;;;;;0.10;0.10;;;7.50;99.90;;;;;;6166415;23;20420;-69
2023/12/13 04:52:53;;;;;;;0.10;0.10;;;7.50;99.90;;;;;;6191170;23;20016;-69
2023/12/13 04:55:19;;;;;;;1.10;0.30;;;7.50;99.90;;;;;;6191081;23;20328;-69
2023/12/13 05:01:26;;;;;;;0.15;0.15;;;7.50;99.90;;;;;;6217581;23;20047;-69
2023/12/13 05:03:51;;;;;;;0.47;0.20;;;7.50;99.90;;;;;;6217915;23;20020;-69
2023/12/13 05:06:17;;;;;;;0.00;0.00;;;7.40;99.90;;;;;;6190806;23;20024;-69
2023/12/13 05:08:42;;;;;;;0.30;0.30;;;7.40;99.90;;;;;;6217740;23;20012;-69
2023/12/13 05:11:09;;;;;;;0.35;0.35;;;7.40;99.90;;;;;;6190845;23;20027;-69
2023/12/13 05:13:34;;;;;;;0.20;0.20;;;7.30;99.90;;;;;;6190782;23;20070;-69
2023/12/13 05:16:01;;;;;;;0.30;0.30;;;7.30;99.90;;;;;;6217752;23;20445;-69
2023/12/13 05:18:26;;;;;;;0.30;0.25;;;7.30;99.90;;;;;;6190583;23;20047;-69
2023/12/13 05:20:52;;;;;;;0.10;0.10;;;7.30;99.90;;;;;;6217580;23;20436;-69
2023/12/13 05:27:01;;;;;;;0.20;0.20;;;7.30;99.90;;;;;;6217580;23;20028;-70
2023/12/13 05:33:08;;;;;;;0.55;0.52;;;7.30;99.90;;;;;;6217383;23;20024;-69
2023/12/13 05:35:34;;;;;;;0.10;0.10;;;7.40;99.90;;;;;;6190393;23;20013;-69
2023/12/13 05:37:59;;;;;;;0.47;0.38;;;7.30;99.90;;;;;;6190677;23;20100;-69
2023/12/13 05:44:06;;;;;;;0.00;0.00;;;7.40;99.90;;;;;;6217245;23;20019;-69
2023/12/13 05:50:12;;;;;;;0.10;0.10;;;7.40;99.90;;;;;;6217196;23;20007;-69
2023/12/13 05:52:39;;;;;;;0.10;0.10;;;7.40;99.90;;;;;;6217376;23;20428;-69
2023/12/13 05:55:06;;;;;;;0.22;0.20;;;7.40;99.90;;;;;;6190367;23;20015;-69
2023/12/13 05:57:31;;;;;;;0.32;0.32;;;7.40;99.90;;;;;;6190468;23;20016;-70
2023/12/13 05:59:57;;;;;;;0.10;0.10;;;7.40;99.90;;;;;;6190453;23;20004;-69
2023/12/13 06:05:47;;;;;;;0.15;0.15;;;7.40;99.90;;;;;;6217455;23;20372;-69
2023/12/13 06:08:13;;;;;;;0.30;0.20;;;7.40;99.90;;;;;;6190453;23;20021;-69
2023/12/13 06:14:19;;;;;;;0.10;0.10;;;7.40;99.90;;;;;;6217120;23;20081;-69
2023/12/13 06:16:55;;;;;;;0.30;0.20;;;7.40;99.90;;;;;;6190016;23;20012;-69
2023/12/13 06:19:21;;;;;;;0.32;0.32;;;7.40;99.90;;;;;;6190304;23;20041;-69
2023/12/13 06:22:03;;;;;;;0.20;0.20;;;7.40;99.90;;;;;;6217085;23;20379;-69
2023/12/13 06:25:06;;;;;;;0.10;0.10;;;7.40;99.90;;;;;;6165248;23;20482;-69
2023/12/13 06:31:18;;;;;;;0.10;0.10;;;7.40;99.90;;;;;;6216720;23;20027;-69
2023/12/13 06:33:43;;;;;;;0.20;0.20;;;7.40;99.90;;;;;;6190027;23;20083;-69
2023/12/13 06:36:09;;;;;;;0.10;0.10;;;7.50;99.90;;;;;;6216893;23;20094;-70
2023/12/13 06:38:34;;;;;;;0.10;0.10;;;7.50;99.90;;;;;;6216618;23;20013;-71
2023/12/13 06:41:00;;;;;;;0.68;0.30;;;7.40;99.90;;;;;;6216954;23;20379;-71
2023/12/13 06:43:25;;;;;;;0.10;0.10;;;7.40;99.90;;;;;;6189864;23;20012;-71
2023/12/13 06:45:51;;;;;;;0.20;0.20;;;7.50;99.90;;;;;;6189735;23;20462;-70
2023/12/13 06:48:16;;;;;;;0.05;0.05;;;7.50;99.90;;;;;;6189742;23;20092;-71
2023/12/13 06:50:42;;;;;;;0.20;0.20;;;7.50;99.90;;;;;;6190105;23;20016;-70
2023/12/13 06:53:08;;;;;;;0.15;0.15;;;7.50;99.90;;;;;;6189996;23;20013;-71
2023/12/13 06:56:12;;;;;;;0.03;0.03;;;7.50;99.90;;;;;;6216934;23;20015;-71
2023/12/13 06:58:37;;;;;;;1.63;0.17;;;7.50;99.90;;;;;;6189687;23;20017;-71
2023/12/13 07:01:04;;;;;;;0.20;0.20;;;7.50;99.90;;;;;;6216726;23;20012;-71
2023/12/13 07:03:30;;;;;;;0.10;0.10;;;7.60;99.90;;;;;;6216126;23;20013;-71
2023/12/13 07:05:56;;;;;;;0.05;0.05;;;7.60;99.90;;;;;;6216600;23;20012;-71
2023/12/13 07:15:51;;;;;;;0.40;0.13;;;7.60;99.90;;;;;;6216334;23;20069;-71
2023/12/13 07:18:18;;;;;;;0.45;0.30;;;7.60;99.90;;;;;;6189508;23;20042;-69
2023/12/13 07:21:39;;;;;;;0.10;0.10;;;7.60;99.90;;;;;;6189250;23;20416;-68
2023/12/13 07:24:10;;;;;;;0.10;0.10;;;7.60;99.90;;;;;;6189315;23;20514;-69
2023/12/13 07:26:37;;;;;;;0.20;0.20;;;7.60;99.90;;;;;;6189645;23;20009;-69
2023/12/13 07:29:02;;;;;;;0.10;0.10;;;7.60;99.90;;;;;;6216281;23;20043;-69
2023/12/13 07:31:53;;;;;;;0.32;0.32;;;7.60;99.90;;;;;;6216307;23;20067;-69
2023/12/13 07:34:20;;;;;;;0.38;0.20;;;7.60;99.90;;;;;;6189494;23;20091;-69
2023/12/13 07:36:48;;;;;;;0.47;0.30;;;7.60;99.90;;;;;;6189586;23;20344;-68
2023/12/13 07:39:15;;;;;;;0.10;0.10;;;7.60;99.90;;;;;;6215919;23;20013;-68
2023/12/13 07:41:41;;;;;;;0.05;0.05;;;7.60;99.90;;;;;;6189615;23;20023;-69
2023/12/13 07:44:07;;;;;;;0.10;0.10;;;7.60;99.90;;;;;;6189429;23;20009;-69
2023/12/13 07:46:32;;;;;;;0.10;0.10;;;7.60;99.90;;;;;;6216496;23;20075;-69
2023/12/13 07:49:03;;;;;;;0.10;0.10;;;7.60;99.90;;;;;;6189353;23;20020;-69
2023/12/13 07:51:40;;;;;;;0.10;0.10;;;7.60;99.90;;;;;;6189629;23;20048;-69
2023/12/13 07:54:05;;;;;;;0.70;0.10;;;7.60;99.90;;;;;;6189362;23;20066;-68
2023/12/13 07:56:31;;;;;;;0.10;0.10;;;7.60;99.90;;;;;;6189508;23;20012;-69
2023/12/13 07:58:56;;;;;;;0.10;0.10;;;7.60;99.90;;;;;;6189278;23;20015;-69
2023/12/13 08:01:22;;;;;;;1.08;0.30;;;7.60;99.90;;;;;;6189350;23;20043;-69
2023/12/13 08:03:48;;;;;;;0.20;0.20;;;7.60;99.90;;;;;;6189564;23;20047;-69
2023/12/13 08:06:15;;;;;;;0.10;0.10;;;7.60;99.90;;;;;;6189526;23;20083;-69
2023/12/13 08:08:41;;;;;;;0.10;0.10;;;7.60;99.90;;;;;;6189575;23;20013;-69
2023/12/13 08:11:08;;;;;;;0.10;0.10;;;7.60;99.90;;;;;;6189477;23;20019;-69
2023/12/13 08:13:34;;;;;;;0.08;0.08;;;7.60;99.90;;;;;;6189349;23;20013;-69
2023/12/13 08:16:00;;;;;;;0.20;0.20;;;7.60;99.90;;;;;;6189424;23;20325;-69
2023/12/13 08:18:26;;;;;;;0.75;0.40;;;7.60;99.90;;;;;;6189400;23;20009;-69
2023/12/13 08:21:23;;;;;;;0.10;0.10;;;7.70;99.90;;;;;;6189457;23;20031;-69
2023/12/13 08:23:49;;;;;;;0.10;0.10;;;7.60;99.90;;;;;;6189408;23;20093;-69
2023/12/13 08:26:15;;;;;;;0.10;0.10;;;7.60;99.90;;;;;;6215985;23;20071;-69
2023/12/13 08:28:40;;;;;;;0.10;0.10;;;7.70;99.90;;;;;;6189385;23;20013;-69
2023/12/13 08:31:08;;;;;;;0.20;0.20;;;7.60;99.90;;;;;;6189405;23;20019;-69
2023/12/13 08:33:41;;;;;;;2.20;0.32;;;7.60;99.90;;;;;;6188902;23;20013;-69
2023/12/13 08:40:01;;;;;;;0.52;0.35;;;7.70;99.90;;;;;;6215851;23;20007;-69
2023/12/13 08:42:26;;;;;;;0.22;0.22;;;7.70;99.90;;;;;;6189000;23;20099;-69
2023/12/13 08:44:52;;;;;;;0.32;0.32;;;7.70;99.90;;;;;;6188766;23;20043;-67
2023/12/13 08:47:19;;;;;;;0.30;0.25;;;7.80;99.90;;;;;;6189228;23;20031;-68
2023/12/13 08:49:45;;;;;;;0.20;0.10;;;7.80;99.90;;;;;;6216127;23;20471;-67
2023/12/13 08:52:11;;;;;;;0.25;0.25;;;7.80;99.90;;;;;;6189101;23;20013;-67
2023/12/13 08:54:43;;;;;;;0.90;0.50;;;7.80;99.90;;;;;;6188146;23;20038;-68
2023/12/13 08:57:09;;;;;;;1.70;0.50;;;7.90;99.90;;;;;;6188765;23;20019;-68
2023/12/13 09:00:10;;;;;;;0.03;0.03;;;7.90;99.90;;;;;;6188450;23;20012;-68
2023/12/13 09:02:36;;;;;;;0.30;0.30;;;8.00;99.90;;;;;;6188848;23;20021;-68
2023/12/13 09:05:10;;;;;;;0.70;0.70;;;8.00;99.90;;;;;;6215753;23;20038;-68
2023/12/13 09:07:56;;;;;;;0.55;0.32;;;8.00;99.90;;;;;;6188812;23;20020;-68
2023/12/13 09:10:51;;;;;;;0.30;0.30;;;8.00;99.90;;;;;;6216094;23;20028;-68
2023/12/13 09:13:30;;;;;;;0.30;0.30;;;8.10;99.90;;;;;;6217665;23;20456;-68
2023/12/13 09:16:01;;;;;;;0.43;0.43;;;8.10;99.90;;;;;;6190567;23;20008;-68
2023/12/13 09:18:34;;;;;;;0.65;0.32;;;8.10;99.90;;;;;;6165935;23;20012;-68
2023/12/13 09:21:00;;;;;;;0.22;0.22;;;8.10;99.90;;;;;;6190531;23;20009;-68
2023/12/13 09:23:26;;;;;;;0.05;0.05;;;8.10;99.90;;;;;;6190719;23;20096;-68
2023/12/13 09:25:52;;;;;;;0.15;0.15;;;8.10;99.90;;;;;;6190408;23;20027;-68
2023/12/13 09:28:18;;;;;;;0.10;0.10;;;8.10;99.90;;;;;;6190438;23;20024;-68
2023/12/13 09:30:44;;;;;;;0.45;0.40;;;8.20;99.90;;;;;;6165741;23;20017;-68
2023/12/13 09:33:13;;;;;;;0.10;0.10;;;8.20;99.90;;;;;;6190545;23;20019;-68
2023/12/13 09:39:40;;;;;;;0.05;0.05;;;8.20;99.90;;;;;;6190435;23;20021;-68
2023/12/13 09:42:05;;;;;;;0.10;0.10;;;8.20;99.90;;;;;;6187798;23;20019;-68
2023/12/13 09:44:32;;;;;;;3.30;0.35;;;8.30;99.90;;;;;;6190117;23;20012;-68
2023/12/13 09:47:02;;;;;;;0.45;0.45;;;8.30;99.90;;;;;;6190402;23;20016;-68
2023/12/13 09:49:31;;;;;;;0.10;0.10;;;8.30;99.90;;;;;;6165662;23;20091;-68
2023/12/13 09:52:01;;;;;;;0.15;0.15;;;8.40;99.90;;;;;;6190653;23;20012;-68
2023/12/13 09:54:44;;;;;;;0.10;0.10;;;8.40;99.90;;;;;;6164930;23;20016;-68
2023/12/13 09:57:11;;;;;;;0.30;0.30;;;8.40;99.90;;;;;;6190032;23;20062;-68
2023/12/13 09:59:52;;;;;;;0.30;0.30;;;8.50;99.90;;;;;;6216628;23;20016;-68
2023/12/13 10:02:18;;;;;;;0.20;0.20;;;8.50;99.90;;;;;;6165212;23;20012;-68
2023/12/13 10:04:44;;;;;;;0.80;0.20;;;8.60;99.90;;;;;;6216913;23;20154;-68
2023/12/13 10:07:10;;;;;;;0.20;0.20;;;8.50;99.90;;;;;;6190096;23;20070;-69
2023/12/13 10:09:35;;;;;;;0.20;0.20;;;8.60;99.90;;;;;;6189852;23;20021;-68
2023/12/13 10:12:07;;;;;;;0.10;0.10;;;8.60;99.90;;;;;;6216838;23;20066;-68
2023/12/13 10:14:34;;;;;;;1.27;0.40;;;8.60;99.90;;;;;;6189910;23;20008;-68
2023/12/13 10:17:22;;;;;;;1.10;1.00;;;8.60;99.90;;;;;;6217192;23;20005;-68
2023/12/13 10:19:48;;;;;;;0.10;0.10;;;8.70;99.90;;;;;;6189982;23;20075;-68
2023/12/13 10:22:17;;;;;;;0.30;0.30;;;8.60;99.90;;;;;;6189275;23;20059;-68
2023/12/13 10:24:42;;;;;;;0.10;0.10;;;8.80;99.90;;;;;;6189694;23;20016;-68
2023/12/13 10:27:13;;;;;;;0.40;0.40;;;8.80;99.90;;;;;;6189802;23;20047;-68
2023/12/13 10:30:11;;;;;;;0.47;0.45;;;8.80;99.90;;;;;;6216753;23;20036;-68
2023/12/13 10:32:36;;;;;;;0.20;0.20;;;8.80;99.90;;;;;;6189482;23;20201;-68
2023/12/13 10:35:04;;;;;;;0.80;0.77;;;8.90;99.90;;;;;;6189059;23;20015;-68
2023/12/13 10:37:33;;;;;;;0.13;0.13;;;8.90;99.90;;;;;;6189462;23;20013;-68
2023/12/13 10:40:06;;;;;;;0.10;0.10;;;9.00;99.90;;;;;;6189680;23;20012;-68
2023/12/13 10:42:59;;;;;;;0.30;0.30;;;8.90;99.90;;;;;;6216036;23;20020;-68
2023/12/13 10:45:25;;;;;;;0.15;0.15;;;9.00;99.90;;;;;;6216109;23;20013;-69
2023/12/13 10:48:03;;;;;;;0.28;0.22;;;9.10;99.90;;;;;;6189799;23;20126;-68
2023/12/13 10:50:48;;;;;;;0.22;0.22;;;9.10;99.90;;;;;;6189482;23;20009;-68
2023/12/13 10:53:16;;;;;;;0.32;0.32;;;9.10;99.90;;;;;;6189543;23;20013;-70
2023/12/13 10:55:43;;;;;;;0.85;0.85;;;9.10;99.90;;;;;;6164814;23;20004;-70
2023/12/13 10:58:23;;;;;;;0.57;0.52;;;9.10;99.90;;;;;;6189467;23;20005;-71
2023/12/13 11:00:49;;;;;;;0.32;0.32;;;9.20;99.90;;;;;;6189552;23;20019;-70
2023/12/13 11:03:22;;;;;;;0.25;0.25;;;9.20;99.90;;;;;;6189389;23;20044;-70
2023/12/13 11:05:47;;;;;;;;;;;9.20;99.90;;;;;;6189758;23;20044;-70
2023/12/13 11:08:17;;;;;;;0.55;0.50;;;9.20;99.90;;;;;;6216234;23;19912;-70
2023/12/13 11:11:02;;;;;;;0.32;0.30;;;9.20;99.90;;;;;;6216111;23;20028;-70
2023/12/13 11:13:48;;;;;;;1.20;0.80;;;9.20;99.90;;;;;;6216166;23;20020;-70
2023/12/13 11:16:47;;;;;;;0.32;0.28;;;9.20;99.90;;;;;;6188798;23;20020;-70
2023/12/13 11:19:15;;;;;;;1.45;0.70;;;9.30;99.90;;;;;;6189317;23;20012;-70
2023/12/13 11:21:46;;;;;;;0.35;0.35;;;9.20;99.90;;;;;;6216194;23;20332;-70
2023/12/13 11:24:59;;;;;;;0.52;0.52;;;9.20;99.90;;;;;;6215308;23;20024;-71
2023/12/13 11:27:30;;;;;;;0.10;0.10;;;9.20;99.90;;;;;;6188702;23;20027;-70
2023/12/13 11:29:55;;;;;;;0.75;0.65;;;9.30;99.90;;;;;;6188572;23;20267;-71
2023/12/13 11:32:33;;;;;;;0.73;0.35;;;9.20;99.90;;;;;;6187878;23;20024;-71
2023/12/13 11:35:16;;;;;;;0.90;0.52;;;9.30;99.90;;;;;;6188029;23;20008;-70
2023/12/13 11:37:48;;;;;;;0.17;0.17;;;9.30;99.90;;;;;;6215351;23;20013;-71
2023/12/13 11:40:14;;;;;;;0.10;0.10;;;9.20;99.90;;;;;;6188507;23;20015;-70
2023/12/13 11:42:40;;;;;;;0.98;0.85;;;9.20;99.90;;;;;;6188983;23;20424;-70
2023/12/13 11:45:06;;;;;;;0.20;0.20;;;9.20;99.90;;;;;;6187987;23;20013;-70
2023/12/13 11:47:36;;;;;;;0.00;0.00;;;9.20;99.90;;;;;;6188902;23;20016;-70
2023/12/13 11:50:01;;;;;;;1.65;0.20;;;9.20;99.90;;;;;;6188315;23;20095;-70
2023/12/13 11:52:27;;;;;;;1.88;0.47;;;9.20;99.90;;;;;;6163147;23;20087;-71
2023/12/13 11:54:54;;;;;;;1.23;0.90;;;9.20;99.90;;;;;;6187242;23;20015;-70
2023/12/13 11:57:27;;;;;;;0.65;0.65;;;9.20;99.90;;;;;;6214281;23;20020;-71
2023/12/13 11:59:55;;;;;;;0.22;0.17;;;9.20;99.90;;;;;;6163377;23;20314;-70
2023/12/13 12:02:21;;;;;;;0.10;0.10;;;9.20;99.90;;;;;;6214824;23;20139;-70
2023/12/13 12:04:49;;;;;;;0.20;0.20;;;9.20;99.90;;;;;;6214160;23;20056;-71
2023/12/13 12:07:16;;;;;;;2.72;0.32;;;9.20;99.90;;;;;;6187932;23;20044;-70
2023/12/13 12:09:50;;;;;;;0.55;0.22;;;9.20;99.90;;;;;;6162946;23;20095;-70
2023/12/13 12:12:23;;;;;;;0.65;0.60;;;9.20;99.90;;;;;;6215351;23;20522;-70
2023/12/13 12:14:53;;;;;;;0.98;0.63;;;9.20;99.90;;;;;;6214975;23;20009;-70
2023/12/13 12:17:23;;;;;;;2.53;0.60;;;9.20;99.90;;;;;;6214979;23;20016;-71
2023/12/13 12:19:50;;;;;;;0.80;0.80;;;9.20;99.90;;;;;;6188253;23;20363;-71
2023/12/13 12:22:21;;;;;;;0.47;0.47;;;9.20;99.90;;;;;;6162740;23;20015;-71
2023/12/13 12:24:49;;;;;;;0.88;0.88;;;9.30;99.90;;;;;;6187931;23;20039;-70
2023/12/13 12:27:15;;;;;;;1.23;1.13;;;9.30;99.90;;;;;;6187389;23;20015;-70
2023/12/13 12:29:40;;;;;;;1.60;0.85;;;9.30;99.90;;;;;;6187153;23;20484;-71
2023/12/13 12:32:09;;;;;;;0.40;0.40;;;9.30;99.90;;;;;;6186541;23;20087;-70
2023/12/13 12:34:40;;;;;;;1.85;0.88;;;9.40;99.90;;;;;;6214041;23;20058;-71
2023/12/13 12:37:08;;;;;;;0.65;0.57;;;9.40;99.90;;;;;;6185659;23;20062;-71
2023/12/13 12:39:40;;;;;;;0.85;0.50;;;9.40;99.90;;;;;;6211410;23;20024;-70
2023/12/13 12:42:06;;;;;;;2.15;1.83;;;9.50;99.90;;;;;;6161652;23;20448;-71
2023/12/13 12:44:31;;;;;;;1.08;1.00;;;9.50;99.90;;;;;;6185173;23;20220;-71
2023/12/13 12:46:57;;;;;;;5.65;1.40;;;9.50;99.90;;;;;;6186889;23;20013;-71
2023/12/13 12:49:23;;;;;;;4.28;1.15;;;9.50;99.90;;;;;;6187873;23;20015;-71
2023/12/13 12:51:51;;;;;;;0.40;0.40;;;9.50;99.90;;;;;;6188003;23;20013;-71
2023/12/13 12:54:16;;;;;;;2.72;1.20;;;9.60;99.90;;;;;;6186976;23;20012;-71
2023/12/13 12:56:43;;;;;;;0.95;0.57;;;9.60;99.90;;;;;;6214603;23;20452;-71
2023/12/13 12:59:14;;;;;;;1.10;1.00;;;9.60;99.90;;;;;;6187992;23;20348;-71
2023/12/13 13:01:41;;;;;;;4.07;1.10;;;9.60;99.90;;;;;;6187309;23;20375;-72
2023/12/13 13:04:10;;;;;;;4.10;1.10;;;9.60;99.90;;;;;;6213665;23;20332;-71
2023/12/13 13:06:36;;;;;;;1.13;0.80;;;9.70;99.90;;;;;;6187584;23;20016;-71
2023/12/13 13:09:03;;;;;;;0.82;0.80;;;9.70;99.90;;;;;;6186069;23;20020;-71
2023/12/13 13:11:29;;;;;;;0.68;0.40;;;9.70;99.90;;;;;;6213394;23;20015;-71
2023/12/13 13:13:54;;;;;;;1.10;0.50;;;9.70;99.90;;;;;;6186282;23;20468;-72
2023/12/13 13:16:24;;;;;;;0.63;0.50;;;9.70;99.90;;;;;;6185179;23;20013;-71
2023/12/13 13:18:49;;;;;;;0.98;0.70;;;9.70;99.90;;;;;;6186138;23;20012;-72
2023/12/13 13:21:16;;;;;;;1.20;0.90;;;9.70;99.90;;;;;;6212531;23;20081;-71
2023/12/13 13:23:42;;;;;;;0.20;0.20;;;9.70;99.90;;;;;;6187198;23;20448;-71
2023/12/13 13:26:09;;;;;;;0.40;0.40;;;9.70;99.90;;;;;;6160112;23;20447;-71
2023/12/13 13:28:36;;;;;;;2.63;1.17;;;9.70;99.90;;;;;;6213301;23;20019;-71
2023/12/13 13:31:04;;;;;;;4.20;0.52;;;9.70;99.90;;;;;;6186824;23;20506;-71
2023/12/13 13:33:31;;;;;;;1.65;1.05;;;9.60;99.90;;;;;;6187748;23;20012;-71
2023/12/13 13:35:57;;;;;;;1.02;0.30;;;9.60;99.90;;;;;;6185998;23;20011;-70
2023/12/13 13:38:22;;;;;;;1.25;1.15;;;9.50;99.90;;;;;;6185444;23;20012;-70
2023/12/13 13:40:49;;;;;;;3.10;0.50;;;9.50;99.90;;;;;;6211744;23;20016;-71
2023/12/13 13:43:15;;;;;;;0.52;0.52;;;9.50;99.90;;;;;;6185289;23;20058;-71
2023/12/13 13:45:40;;;;;;;1.10;0.80;;;9.50;99.90;;;;;;6185523;23;20016;-71
2023/12/13 13:48:06;;;;;;;0.63;0.63;;;9.50;99.90;;;;;;6185401;23;20020;-71
2023/12/13 13:50:31;;;;;;;0.43;0.40;;;9.50;99.90;;;;;;6186861;23;20094;-71
2023/12/13 13:53:00;;;;;;;1.23;1.10;;;9.40;99.90;;;;;;6212709;23;20021;-70
2023/12/13 13:55:25;;;;;;;1.02;0.98;;;9.40;99.90;;;;;;6185109;23;20063;-71
2023/12/13 13:57:52;;;;;;;1.25;0.98;;;9.40;99.90;;;;;;6182485;23;20009;-71
2023/12/13 14:00:20;;;;;;;4.82;1.40;;;9.40;99.90;;;;;;6185500;23;20051;-71
2023/12/13 14:02:45;;;;;;;3.13;1.50;;;9.40;99.90;;;;;;6211886;23;20035;-71
2023/12/13 14:05:11;;;;;;;1.10;0.98;;;9.50;99.90;;;;;;6159861;23;20456;-71
2023/12/13 14:07:37;;;;;;;3.85;2.05;;;9.40;99.90;;;;;;6185092;23;20056;-71
2023/12/13 14:10:03;;;;;;;4.40;1.63;;;9.40;99.90;;;;;;6184733;23;20051;-71
2023/12/13 14:12:30;;;;;;;2.13;1.55;;;9.50;99.90;;;;;;6183621;23;20035;-70
2023/12/13 14:14:56;;;;;;;3.58;0.75;;;9.40;99.90;;;;;;6181310;23;20099;-71
2023/12/13 14:17:23;;;;;;;0.25;0.25;;;9.40;99.90;;;;;;6211454;23;20063;-70
2023/12/13 14:19:49;;;;;;;3.40;1.38;;;9.40;99.90;;;;;;6184218;23;20012;-70
2023/12/13 14:22:15;;;;;;;1.85;0.55;;;9.40;99.90;;;;;;6184181;23;20020;-71
2023/12/13 14:24:41;;;;;;;4.38;1.75;;;9.40;99.90;;;;;;6184001;23;20015;-71
2023/12/13 14:27:07;;;;;;;2.20;0.82;;;9.40;99.90;;;;;;6185248;23;20012;-71
2023/12/13 14:29:33;;;;;;;1.27;1.17;;;9.30;99.90;;;;;;6184596;23;20236;-71
2023/12/13 14:31:59;;;;;;;0.60;0.60;;;9.40;99.90;;;;;;6186335;23;20012;-71
2023/12/13 14:34:24;;;;;;;1.10;0.98;;;9.30;99.90;;;;;;6158260;23;20016;-72
2023/12/13 14:36:50;;;;;;;1.13;0.73;;;9.40;99.90;;;;;;6212522;23;20084;-71
2023/12/13 14:39:17;;;;;;;3.80;1.25;;;9.30;99.90;;;;;;6183554;23;20441;-71
2023/12/13 14:41:43;;;;;;;2.50;1.48;;;9.40;99.90;;;;;;6212738;23;20013;-71
2023/12/13 14:44:08;;;;;;;2.45;1.52;;;9.40;99.90;;;;;;6209744;23;20024;-71
2023/12/13 14:46:36;;;;;;;3.63;0.80;;;9.30;99.90;;;;;;6179958;23;20074;-71
2023/12/13 14:49:02;;;;;;;4.45;1.17;;;9.30;99.90;;;;;;6210248;23;20087;-71
2023/12/13 14:51:28;;;;;;;6.60;2.15;;;9.20;99.90;;;;;;6184987;23;20023;-71
2023/12/13 14:53:56;;;;;;;1.35;0.93;;;9.20;99.90;;;;;;6210391;23;20027;-71
2023/12/13 14:56:22;;;;;;;4.65;0.82;;;9.20;99.90;;;;;;6180531;23;20245;-70
2023/12/13 14:58:48;;;;;;;1.85;1.67;;;9.20;99.90;;;;;;6175590;23;20051;-71